sensor_id;sensor_type;location;lat;lon;timestamp;P1;durP1;ratioP1;P2;durP2;ratioP2
47856;SDS011;33618;49.972;8.242;2023-03-13T00:01:55;13.25;;;2.65;;
47856;SDS011;33618;49.972;8.242;2023-03-13T00:04:22;14.02;;;2.60;;
47856;SDS011;33618;49.972;8.242;2023-03-13T00:06:49;9.25;;;2.30;;
47856;SDS011;33618;49.972;8.242;2023-03-13T00:09:16;11.65;;;2.53;;
47856;SDS011;33618;49.972;8.242;2023-03-13T00:11:43;10.93;;;2.50;;
47856;SDS011;33618;49.972;8.242;2023-03-13T00:14:11;14.23;;;2.78;;
47856;SDS011;33618;49.972;8.242;2023-03-13T00:16:38;15.18;;;2.55;;
47856;SDS011;33618;49.972;8.242;2023-03-13T00:19:08;8.45;;;2.45;;
47856;SDS011;33618;49.972;8.242;2023-03-13T00:21:35;13.57;;;2.67;;
47856;SDS011;33618;49.972;8.242;2023-03-13T00:24:08;13.43;;;2.90;;
47856;SDS011;33618;49.972;8.242;2023-03-13T00:26:36;12.43;;;2.30;;
47856;SDS011;33618;49.972;8.242;2023-03-13T00:29:03;10.57;;;2.10;;
47856;SDS011;33618;49.972;8.242;2023-03-13T00:31:30;16.02;;;2.92;;
47856;SDS011;33618;49.972;8.242;2023-03-13T00:34:00;9.63;;;2.40;;
47856;SDS011;33618;49.972;8.242;2023-03-13T00:36:34;12.52;;;2.55;;
47856;SDS011;33618;49.972;8.242;2023-03-13T00:39:03;10.02;;;2.47;;
47856;SDS011;33618;49.972;8.242;2023-03-13T00:41:31;12.43;;;3.08;;
47856;SDS011;33618;49.972;8.242;2023-03-13T00:43:58;8.98;;;2.00;;
47856;SDS011;33618;49.972;8.242;2023-03-13T00:46:27;10.70;;;2.47;;
47856;SDS011;33618;49.972;8.242;2023-03-13T00:48:55;11.85;;;2.53;;
47856;SDS011;33618;49.972;8.242;2023-03-13T00:51:23;11.88;;;2.38;;
47856;SDS011;33618;49.972;8.242;2023-03-13T00:53:53;11.32;;;2.35;;
47856;SDS011;33618;49.972;8.242;2023-03-13T00:56:20;9.40;;;2.58;;
47856;SDS011;33618;49.972;8.242;2023-03-13T00:58:48;11.95;;;2.47;;
47856;SDS011;33618;49.972;8.242;2023-03-13T01:01:17;9.85;;;2.42;;
47856;SDS011;33618;49.972;8.242;2023-03-13T01:03:47;12.88;;;3.28;;
47856;SDS011;33618;49.972;8.242;2023-03-13T01:06:17;12.48;;;2.40;;
47856;SDS011;33618;49.972;8.242;2023-03-13T01:08:46;12.50;;;2.35;;
47856;SDS011;33618;49.972;8.242;2023-03-13T01:11:24;13.10;;;2.60;;
47856;SDS011;33618;49.972;8.242;2023-03-13T01:13:56;12.25;;;2.92;;
47856;SDS011;33618;49.972;8.242;2023-03-13T01:16:29;11.07;;;2.85;;
47856;SDS011;33618;49.972;8.242;2023-03-13T01:18:59;17.65;;;2.50;;
47856;SDS011;33618;49.972;8.242;2023-03-13T01:21:29;8.63;;;2.60;;
47856;SDS011;33618;49.972;8.242;2023-03-13T01:23:56;18.98;;;2.55;;
47856;SDS011;33618;49.972;8.242;2023-03-13T01:26:23;11.48;;;2.40;;
47856;SDS011;33618;49.972;8.242;2023-03-13T01:28:51;11.50;;;2.13;;
47856;SDS011;33618;49.972;8.242;2023-03-13T01:31:19;10.88;;;2.38;;
47856;SDS011;33618;49.972;8.242;2023-03-13T01:33:48;10.05;;;2.13;;
47856;SDS011;33618;49.972;8.242;2023-03-13T01:36:18;15.30;;;2.25;;
47856;SDS011;33618;49.972;8.242;2023-03-13T01:38:53;7.93;;;1.80;;
47856;SDS011;33618;49.972;8.242;2023-03-13T01:41:21;14.30;;;2.50;;
47856;SDS011;33618;49.972;8.242;2023-03-13T01:43:49;9.32;;;1.77;;
47856;SDS011;33618;49.972;8.242;2023-03-13T01:46:17;9.18;;;2.47;;
47856;SDS011;33618;49.972;8.242;2023-03-13T01:49:00;10.35;;;2.42;;
47856;SDS011;33618;49.972;8.242;2023-03-13T01:51:35;8.38;;;2.10;;
47856;SDS011;33618;49.972;8.242;2023-03-13T01:54:30;10.63;;;2.28;;
47856;SDS011;33618;49.972;8.242;2023-03-13T01:57:04;8.93;;;1.95;;
47856;SDS011;33618;49.972;8.242;2023-03-13T02:00:05;9.27;;;1.88;;
47856;SDS011;33618;49.972;8.242;2023-03-13T02:02:35;8.73;;;2.10;;
47856;SDS011;33618;49.972;8.242;2023-03-13T02:05:03;9.40;;;2.15;;
47856;SDS011;33618;49.972;8.242;2023-03-13T02:07:34;6.97;;;1.77;;
47856;SDS011;33618;49.972;8.242;2023-03-13T02:10:06;7.72;;;1.90;;
47856;SDS011;33618;49.972;8.242;2023-03-13T02:12:37;9.68;;;2.15;;
47856;SDS011;33618;49.972;8.242;2023-03-13T02:15:09;13.73;;;2.30;;
47856;SDS011;33618;49.972;8.242;2023-03-13T02:17:38;10.07;;;1.95;;
47856;SDS011;33618;49.972;8.242;2023-03-13T02:20:07;7.63;;;2.20;;
47856;SDS011;33618;49.972;8.242;2023-03-13T02:22:44;5.03;;;1.55;;
47856;SDS011;33618;49.972;8.242;2023-03-13T02:28:02;6.45;;;1.75;;
47856;SDS011;33618;49.972;8.242;2023-03-13T02:30:32;3.65;;;1.45;;
47856;SDS011;33618;49.972;8.242;2023-03-13T02:33:00;8.70;;;1.92;;
47856;SDS011;33618;49.972;8.242;2023-03-13T02:35:28;8.38;;;1.92;;
47856;SDS011;33618;49.972;8.242;2023-03-13T02:37:58;6.75;;;1.90;;
47856;SDS011;33618;49.972;8.242;2023-03-13T02:40:34;6.03;;;1.55;;
47856;SDS011;33618;49.972;8.242;2023-03-13T02:43:08;4.95;;;1.35;;
47856;SDS011;33618;49.972;8.242;2023-03-13T02:45:39;4.68;;;1.38;;
47856;SDS011;33618;49.972;8.242;2023-03-13T02:48:06;9.40;;;1.85;;
47856;SDS011;33618;49.972;8.242;2023-03-13T02:50:33;4.35;;;1.60;;
47856;SDS011;33618;49.972;8.242;2023-03-13T02:53:02;5.47;;;1.70;;
47856;SDS011;33618;49.972;8.242;2023-03-13T02:55:38;5.72;;;1.80;;
47856;SDS011;33618;49.972;8.242;2023-03-13T02:58:06;5.57;;;2.28;;
47856;SDS011;33618;49.972;8.242;2023-03-13T03:00:33;5.15;;;1.48;;
47856;SDS011;33618;49.972;8.242;2023-03-13T03:03:01;6.25;;;1.50;;
47856;SDS011;33618;49.972;8.242;2023-03-13T03:05:28;5.00;;;1.45;;
47856;SDS011;33618;49.972;8.242;2023-03-13T03:07:55;7.30;;;1.48;;
47856;SDS011;33618;49.972;8.242;2023-03-13T03:10:21;3.38;;;1.42;;
47856;SDS011;33618;49.972;8.242;2023-03-13T03:12:48;5.88;;;1.35;;
47856;SDS011;33618;49.972;8.242;2023-03-13T03:15:15;5.93;;;1.38;;
47856;SDS011;33618;49.972;8.242;2023-03-13T03:17:42;10.80;;;1.67;;
47856;SDS011;33618;49.972;8.242;2023-03-13T03:20:09;4.90;;;1.30;;
47856;SDS011;33618;49.972;8.242;2023-03-13T03:22:37;3.85;;;1.27;;
47856;SDS011;33618;49.972;8.242;2023-03-13T03:25:06;2.75;;;1.10;;
47856;SDS011;33618;49.972;8.242;2023-03-13T03:27:35;4.38;;;1.77;;
47856;SDS011;33618;49.972;8.242;2023-03-13T03:30:05;2.00;;;1.02;;
47856;SDS011;33618;49.972;8.242;2023-03-13T03:32:34;2.25;;;1.00;;
47856;SDS011;33618;49.972;8.242;2023-03-13T03:35:01;3.13;;;1.25;;
47856;SDS011;33618;49.972;8.242;2023-03-13T03:37:28;2.67;;;1.17;;
47856;SDS011;33618;49.972;8.242;2023-03-13T03:39:55;2.30;;;1.10;;
47856;SDS011;33618;49.972;8.242;2023-03-13T03:42:22;3.83;;;1.23;;
47856;SDS011;33618;49.972;8.242;2023-03-13T03:44:49;2.42;;;1.42;;
47856;SDS011;33618;49.972;8.242;2023-03-13T03:47:15;1.85;;;1.08;;
47856;SDS011;33618;49.972;8.242;2023-03-13T03:49:42;4.13;;;1.10;;
47856;SDS011;33618;49.972;8.242;2023-03-13T03:52:09;3.72;;;1.13;;
47856;SDS011;33618;49.972;8.242;2023-03-13T03:54:36;2.53;;;0.75;;
47856;SDS011;33618;49.972;8.242;2023-03-13T03:57:03;2.72;;;0.93;;
47856;SDS011;33618;49.972;8.242;2023-03-13T03:59:30;3.47;;;1.00;;
47856;SDS011;33618;49.972;8.242;2023-03-13T04:01:57;2.83;;;0.90;;
47856;SDS011;33618;49.972;8.242;2023-03-13T04:04:24;2.38;;;0.75;;
47856;SDS011;33618;49.972;8.242;2023-03-13T04:06:51;2.72;;;1.02;;
47856;SDS011;33618;49.972;8.242;2023-03-13T04:09:18;1.83;;;0.88;;
47856;SDS011;33618;49.972;8.242;2023-03-13T04:11:45;2.03;;;0.80;;
47856;SDS011;33618;49.972;8.242;2023-03-13T04:14:12;1.10;;;0.88;;
47856;SDS011;33618;49.972;8.242;2023-03-13T04:16:39;1.98;;;0.65;;
47856;SDS011;33618;49.972;8.242;2023-03-13T04:19:06;1.20;;;0.68;;
47856;SDS011;33618;49.972;8.242;2023-03-13T04:21:33;1.52;;;0.70;;
47856;SDS011;33618;49.972;8.242;2023-03-13T04:24:00;0.73;;;0.57;;
47856;SDS011;33618;49.972;8.242;2023-03-13T04:26:26;1.20;;;0.70;;
47856;SDS011;33618;49.972;8.242;2023-03-13T04:28:53;2.15;;;0.70;;
47856;SDS011;33618;49.972;8.242;2023-03-13T04:31:20;1.25;;;0.70;;
47856;SDS011;33618;49.972;8.242;2023-03-13T04:33:48;0.60;;;0.60;;
47856;SDS011;33618;49.972;8.242;2023-03-13T04:36:15;1.35;;;0.57;;
47856;SDS011;33618;49.972;8.242;2023-03-13T04:38:42;1.27;;;0.70;;
47856;SDS011;33618;49.972;8.242;2023-03-13T04:41:09;0.70;;;0.70;;
47856;SDS011;33618;49.972;8.242;2023-03-13T04:43:36;0.70;;;0.65;;
47856;SDS011;33618;49.972;8.242;2023-03-13T04:46:02;1.48;;;0.95;;
47856;SDS011;33618;49.972;8.242;2023-03-13T04:48:29;0.60;;;0.60;;
47856;SDS011;33618;49.972;8.242;2023-03-13T04:50:56;0.80;;;0.80;;
47856;SDS011;33618;49.972;8.242;2023-03-13T04:53:23;3.22;;;1.20;;
47856;SDS011;33618;49.972;8.242;2023-03-13T04:55:50;1.52;;;0.80;;
47856;SDS011;33618;49.972;8.242;2023-03-13T04:58:17;2.45;;;1.02;;
47856;SDS011;33618;49.972;8.242;2023-03-13T05:00:44;2.20;;;1.10;;
47856;SDS011;33618;49.972;8.242;2023-03-13T05:03:11;2.05;;;1.00;;
47856;SDS011;33618;49.972;8.242;2023-03-13T05:05:38;4.03;;;0.98;;
47856;SDS011;33618;49.972;8.242;2023-03-13T05:08:05;1.55;;;0.90;;
47856;SDS011;33618;49.972;8.242;2023-03-13T05:10:31;1.10;;;1.00;;
47856;SDS011;33618;49.972;8.242;2023-03-13T05:13:04;1.63;;;1.23;;
47856;SDS011;33618;49.972;8.242;2023-03-13T05:15:31;2.00;;;1.20;;
47856;SDS011;33618;49.972;8.242;2023-03-13T05:17:58;3.35;;;1.10;;
47856;SDS011;33618;49.972;8.242;2023-03-13T05:20:25;1.45;;;1.17;;
47856;SDS011;33618;49.972;8.242;2023-03-13T05:22:51;1.70;;;1.20;;
47856;SDS011;33618;49.972;8.242;2023-03-13T05:25:19;2.83;;;1.45;;
47856;SDS011;33618;49.972;8.242;2023-03-13T05:27:46;1.73;;;1.42;;
47856;SDS011;33618;49.972;8.242;2023-03-13T05:30:13;1.75;;;1.52;;
47856;SDS011;33618;49.972;8.242;2023-03-13T05:32:39;2.42;;;1.80;;
47856;SDS011;33618;49.972;8.242;2023-03-13T05:35:06;1.88;;;1.77;;
47856;SDS011;33618;49.972;8.242;2023-03-13T05:37:34;3.10;;;1.70;;
47856;SDS011;33618;49.972;8.242;2023-03-13T05:40:00;2.70;;;2.13;;
47856;SDS011;33618;49.972;8.242;2023-03-13T05:42:27;2.75;;;2.30;;
47856;SDS011;33618;49.972;8.242;2023-03-13T05:44:58;2.22;;;1.90;;
47856;SDS011;33618;49.972;8.242;2023-03-13T05:47:25;3.95;;;2.42;;
47856;SDS011;33618;49.972;8.242;2023-03-13T05:49:52;3.08;;;2.75;;
47856;SDS011;33618;49.972;8.242;2023-03-13T05:52:19;3.25;;;2.95;;
47856;SDS011;33618;49.972;8.242;2023-03-13T05:54:46;3.00;;;2.80;;
47856;SDS011;33618;49.972;8.242;2023-03-13T05:57:13;3.20;;;2.90;;
47856;SDS011;33618;49.972;8.242;2023-03-13T05:59:40;3.53;;;3.22;;
47856;SDS011;33618;49.972;8.242;2023-03-13T06:02:06;4.22;;;3.03;;
47856;SDS011;33618;49.972;8.242;2023-03-13T06:04:33;3.38;;;3.08;;
47856;SDS011;33618;49.972;8.242;2023-03-13T06:07:01;3.60;;;3.30;;
47856;SDS011;33618;49.972;8.242;2023-03-13T06:09:28;4.43;;;3.60;;
47856;SDS011;33618;49.972;8.242;2023-03-13T06:11:54;3.60;;;3.30;;
47856;SDS011;33618;49.972;8.242;2023-03-13T06:14:21;4.25;;;3.70;;
47856;SDS011;33618;49.972;8.242;2023-03-13T06:16:48;4.65;;;4.10;;
47856;SDS011;33618;49.972;8.242;2023-03-13T06:19:15;5.60;;;3.80;;
47856;SDS011;33618;49.972;8.242;2023-03-13T06:21:42;5.20;;;3.80;;
47856;SDS011;33618;49.972;8.242;2023-03-13T06:24:09;5.13;;;4.60;;
47856;SDS011;33618;49.972;8.242;2023-03-13T06:26:36;4.72;;;4.20;;
47856;SDS011;33618;49.972;8.242;2023-03-13T06:29:03;4.70;;;4.30;;
47856;SDS011;33618;49.972;8.242;2023-03-13T06:31:33;4.00;;;3.70;;
47856;SDS011;33618;49.972;8.242;2023-03-13T06:34:07;3.75;;;3.45;;
47856;SDS011;33618;49.972;8.242;2023-03-13T06:36:36;3.85;;;3.50;;
47856;SDS011;33618;49.972;8.242;2023-03-13T06:39:03;3.63;;;3.33;;
47856;SDS011;33618;49.972;8.242;2023-03-13T06:41:31;3.35;;;3.15;;
47856;SDS011;33618;49.972;8.242;2023-03-13T06:43:58;3.47;;;3.20;;
47856;SDS011;33618;49.972;8.242;2023-03-13T06:46:25;4.30;;;2.75;;
47856;SDS011;33618;49.972;8.242;2023-03-13T06:48:52;3.50;;;3.20;;
47856;SDS011;33618;49.972;8.242;2023-03-13T06:51:23;3.28;;;3.00;;
47856;SDS011;33618;49.972;8.242;2023-03-13T06:53:51;3.70;;;3.17;;
47856;SDS011;33618;49.972;8.242;2023-03-13T06:56:18;3.50;;;3.20;;
47856;SDS011;33618;49.972;8.242;2023-03-13T06:58:49;3.65;;;3.35;;
47856;SDS011;33618;49.972;8.242;2023-03-13T07:01:17;3.65;;;3.30;;
47856;SDS011;33618;49.972;8.242;2023-03-13T07:03:44;3.28;;;2.95;;
47856;SDS011;33618;49.972;8.242;2023-03-13T07:06:13;2.55;;;2.35;;
47856;SDS011;33618;49.972;8.242;2023-03-13T07:08:40;2.30;;;2.20;;
47856;SDS011;33618;49.972;8.242;2023-03-13T07:11:07;2.40;;;2.20;;
47856;SDS011;33618;49.972;8.242;2023-03-13T07:13:37;2.30;;;2.10;;
47856;SDS011;33618;49.972;8.242;2023-03-13T07:16:08;2.35;;;2.10;;
47856;SDS011;33618;49.972;8.242;2023-03-13T07:18:37;2.33;;;2.13;;
47856;SDS011;33618;49.972;8.242;2023-03-13T07:21:08;2.03;;;1.92;;
47856;SDS011;33618;49.972;8.242;2023-03-13T07:23:35;1.90;;;1.80;;
47856;SDS011;33618;49.972;8.242;2023-03-13T07:26:07;2.85;;;1.90;;
47856;SDS011;33618;49.972;8.242;2023-03-13T07:28:37;2.15;;;2.00;;
47856;SDS011;33618;49.972;8.242;2023-03-13T07:31:12;1.83;;;1.70;;
47856;SDS011;33618;49.972;8.242;2023-03-13T07:33:43;1.98;;;1.88;;
47856;SDS011;33618;49.972;8.242;2023-03-13T07:36:11;1.65;;;1.55;;
47856;SDS011;33618;49.972;8.242;2023-03-13T07:38:40;1.67;;;1.58;;
47856;SDS011;33618;49.972;8.242;2023-03-13T07:41:10;2.85;;;1.67;;
47856;SDS011;33618;49.972;8.242;2023-03-13T07:43:41;1.63;;;1.52;;
47856;SDS011;33618;49.972;8.242;2023-03-13T07:46:10;1.52;;;1.42;;
47856;SDS011;33618;49.972;8.242;2023-03-13T07:48:42;3.08;;;1.80;;
47856;SDS011;33618;49.972;8.242;2023-03-13T07:51:10;1.90;;;1.80;;
47856;SDS011;33618;49.972;8.242;2023-03-13T07:53:38;1.85;;;1.70;;
47856;SDS011;33618;49.972;8.242;2023-03-13T08:32:02;2.58;;;2.22;;
47856;SDS011;33618;49.972;8.242;2023-03-13T08:34:29;2.38;;;2.17;;
47856;SDS011;33618;49.972;8.242;2023-03-13T08:37:00;2.60;;;2.40;;
47856;SDS011;33618;49.972;8.242;2023-03-13T08:39:27;2.50;;;2.30;;
47856;SDS011;33618;49.972;8.242;2023-03-13T08:41:54;2.70;;;2.50;;
47856;SDS011;33618;49.972;8.242;2023-03-13T08:44:21;2.50;;;2.30;;
47856;SDS011;33618;49.972;8.242;2023-03-13T08:46:48;2.58;;;2.38;;
47856;SDS011;33618;49.972;8.242;2023-03-13T08:49:21;3.30;;;2.75;;
47856;SDS011;33618;49.972;8.242;2023-03-13T08:51:48;2.85;;;2.63;;
47856;SDS011;33618;49.972;8.242;2023-03-13T08:54:15;2.70;;;2.50;;
47856;SDS011;33618;49.972;8.242;2023-03-13T08:56:42;3.05;;;2.67;;
47856;SDS011;33618;49.972;8.242;2023-03-13T08:59:09;4.68;;;3.17;;
47856;SDS011;33618;49.972;8.242;2023-03-13T09:01:36;4.32;;;3.13;;
47856;SDS011;33618;49.972;8.242;2023-03-13T09:04:03;3.22;;;2.92;;
47856;SDS011;33618;49.972;8.242;2023-03-13T09:06:32;3.78;;;3.45;;
47856;SDS011;33618;49.972;8.242;2023-03-13T09:09:00;4.57;;;2.90;;
47856;SDS011;33618;49.972;8.242;2023-03-13T09:11:27;8.02;;;3.00;;
47856;SDS011;33618;49.972;8.242;2023-03-13T09:13:55;4.53;;;2.80;;
47856;SDS011;33618;49.972;8.242;2023-03-13T09:16:25;3.22;;;2.92;;
47856;SDS011;33618;49.972;8.242;2023-03-13T09:18:54;3.17;;;2.88;;
47856;SDS011;33618;49.972;8.242;2023-03-13T09:21:23;3.67;;;2.90;;
47856;SDS011;33618;49.972;8.242;2023-03-13T09:23:55;3.72;;;2.88;;
47856;SDS011;33618;49.972;8.242;2023-03-13T09:26:26;3.00;;;2.60;;
47856;SDS011;33618;49.972;8.242;2023-03-13T09:28:53;2.88;;;2.65;;
47856;SDS011;33618;49.972;8.242;2023-03-13T10:31:53;2.72;;;2.38;;
47856;SDS011;33618;49.972;8.242;2023-03-13T10:34:29;4.72;;;2.42;;
47856;SDS011;33618;49.972;8.242;2023-03-13T10:37:29;2.65;;;2.45;;
47856;SDS011;33618;49.972;8.242;2023-03-13T10:40:12;3.45;;;2.40;;
47856;SDS011;33618;49.972;8.242;2023-03-13T10:42:52;3.58;;;2.85;;
47856;SDS011;33618;49.972;8.242;2023-03-13T10:45:26;2.83;;;2.60;;
47856;SDS011;33618;49.972;8.242;2023-03-13T10:48:03;3.10;;;2.75;;
47856;SDS011;33618;49.972;8.242;2023-03-13T10:50:43;2.92;;;2.72;;
47856;SDS011;33618;49.972;8.242;2023-03-13T10:58:41;5.70;;;2.83;;
47856;SDS011;33618;49.972;8.242;2023-03-13T11:04:00;3.28;;;2.72;;
47856;SDS011;33618;49.972;8.242;2023-03-13T11:07:39;5.85;;;2.70;;
47856;SDS011;33618;49.972;8.242;2023-03-13T11:10:28;3.78;;;2.45;;
47856;SDS011;33618;49.972;8.242;2023-03-13T11:12:56;5.47;;;2.42;;
47856;SDS011;33618;49.972;8.242;2023-03-13T11:15:38;3.65;;;2.20;;
47856;SDS011;33618;49.972;8.242;2023-03-13T11:18:14;3.10;;;2.20;;
47856;SDS011;33618;49.972;8.242;2023-03-13T11:20:44;3.28;;;2.15;;
47856;SDS011;33618;49.972;8.242;2023-03-13T11:23:19;3.50;;;2.20;;
47856;SDS011;33618;49.972;8.242;2023-03-13T12:03:57;2.75;;;1.67;;
47856;SDS011;33618;49.972;8.242;2023-03-13T12:06:49;2.70;;;1.75;;
47856;SDS011;33618;49.972;8.242;2023-03-13T12:09:43;3.75;;;2.25;;
47856;SDS011;33618;49.972;8.242;2023-03-13T12:18:32;2.10;;;1.90;;
47856;SDS011;33618;49.972;8.242;2023-03-13T12:26:17;1.98;;;1.70;;
47856;SDS011;33618;49.972;8.242;2023-03-13T12:31:52;2.55;;;1.92;;
47856;SDS011;33618;49.972;8.242;2023-03-13T12:34:29;2.03;;;1.88;;
47856;SDS011;33618;49.972;8.242;2023-03-13T12:37:09;2.88;;;1.80;;
47856;SDS011;33618;49.972;8.242;2023-03-13T12:40:13;2.20;;;1.90;;
47856;SDS011;33618;49.972;8.242;2023-03-13T12:42:48;1.95;;;1.58;;
47856;SDS011;33618;49.972;8.242;2023-03-13T12:45:21;1.77;;;1.65;;
47856;SDS011;33618;49.972;8.242;2023-03-13T12:56:29;3.10;;;2.10;;
47856;SDS011;33618;49.972;8.242;2023-03-13T12:59:07;2.28;;;2.08;;
47856;SDS011;33618;49.972;8.242;2023-03-13T13:01:46;4.20;;;2.00;;
47856;SDS011;33618;49.972;8.242;2023-03-13T13:04:18;2.67;;;1.90;;
47856;SDS011;33618;49.972;8.242;2023-03-13T13:06:51;4.05;;;1.95;;
47856;SDS011;33618;49.972;8.242;2023-03-13T13:09:30;2.38;;;1.92;;
47856;SDS011;33618;49.972;8.242;2023-03-13T13:12:18;2.80;;;2.10;;
47856;SDS011;33618;49.972;8.242;2023-03-13T13:19:52;2.35;;;1.77;;
47856;SDS011;33618;49.972;8.242;2023-03-13T13:30:27;1.88;;;1.60;;
47856;SDS011;33618;49.972;8.242;2023-03-13T13:32:53;2.00;;;1.58;;
47856;SDS011;33618;49.972;8.242;2023-03-13T13:35:26;5.13;;;2.30;;
47856;SDS011;33618;49.972;8.242;2023-03-13T13:38:20;3.38;;;1.80;;
47856;SDS011;33618;49.972;8.242;2023-03-13T13:41:03;1.60;;;1.50;;
47856;SDS011;33618;49.972;8.242;2023-03-13T13:46:49;3.25;;;1.30;;
47856;SDS011;33618;49.972;8.242;2023-03-13T13:49:33;3.40;;;1.80;;
47856;SDS011;33618;49.972;8.242;2023-03-13T13:57:20;2.13;;;1.67;;
47856;SDS011;33618;49.972;8.242;2023-03-13T13:59:50;3.33;;;1.88;;
47856;SDS011;33618;49.972;8.242;2023-03-13T14:02:34;1.98;;;1.60;;
47856;SDS011;33618;49.972;8.242;2023-03-13T14:05:22;2.90;;;2.53;;
47856;SDS011;33618;49.972;8.242;2023-03-13T14:10:37;2.65;;;1.52;;
47856;SDS011;33618;49.972;8.242;2023-03-13T14:13:21;1.80;;;1.70;;
47856;SDS011;33618;49.972;8.242;2023-03-13T14:15:50;1.40;;;1.30;;
47856;SDS011;33618;49.972;8.242;2023-03-13T14:18:19;2.22;;;1.25;;
47856;SDS011;33618;49.972;8.242;2023-03-13T14:20:52;1.88;;;1.25;;
47856;SDS011;33618;49.972;8.242;2023-03-13T14:23:35;1.17;;;1.08;;
47856;SDS011;33618;49.972;8.242;2023-03-13T14:28:51;1.40;;;1.30;;
47856;SDS011;33618;49.972;8.242;2023-03-13T14:39:36;1.30;;;1.20;;
47856;SDS011;33618;49.972;8.242;2023-03-13T14:42:14;3.20;;;1.10;;
47856;SDS011;33618;49.972;8.242;2023-03-13T14:44:43;1.95;;;1.30;;
47856;SDS011;33618;49.972;8.242;2023-03-13T14:49:57;1.83;;;1.30;;
47856;SDS011;33618;49.972;8.242;2023-03-13T14:52:35;2.50;;;1.20;;
47856;SDS011;33618;49.972;8.242;2023-03-13T14:55:06;2.88;;;1.25;;
47856;SDS011;33618;49.972;8.242;2023-03-13T14:57:56;1.20;;;1.10;;
47856;SDS011;33618;49.972;8.242;2023-03-13T15:00:37;2.63;;;2.40;;
47856;SDS011;33618;49.972;8.242;2023-03-13T15:03:27;4.97;;;2.60;;
47856;SDS011;33618;49.972;8.242;2023-03-13T15:06:05;3.70;;;1.65;;
47856;SDS011;33618;49.972;8.242;2023-03-13T15:08:33;1.98;;;1.88;;
47856;SDS011;33618;49.972;8.242;2023-03-13T15:11:15;4.00;;;2.22;;
47856;SDS011;33618;49.972;8.242;2023-03-13T15:13:59;5.38;;;1.55;;
47856;SDS011;33618;49.972;8.242;2023-03-13T15:16:26;3.65;;;1.23;;
47856;SDS011;33618;49.972;8.242;2023-03-13T15:18:54;7.60;;;1.30;;
47856;SDS011;33618;49.972;8.242;2023-03-13T15:23:53;2.50;;;1.13;;
47856;SDS011;33618;49.972;8.242;2023-03-13T15:26:28;3.05;;;1.10;;
47856;SDS011;33618;49.972;8.242;2023-03-13T15:28:55;2.95;;;1.00;;
47856;SDS011;33618;49.972;8.242;2023-03-13T15:31:24;2.75;;;1.00;;
47856;SDS011;33618;49.972;8.242;2023-03-13T15:33:54;1.77;;;1.30;;
47856;SDS011;33618;49.972;8.242;2023-03-13T15:36:23;6.53;;;1.40;;
47856;SDS011;33618;49.972;8.242;2023-03-13T15:38:52;3.08;;;1.08;;
47856;SDS011;33618;49.972;8.242;2023-03-13T15:41:19;1.42;;;1.17;;
47856;SDS011;33618;49.972;8.242;2023-03-13T15:43:47;0.98;;;0.90;;
47856;SDS011;33618;49.972;8.242;2023-03-13T15:46:18;2.88;;;0.90;;
47856;SDS011;33618;49.972;8.242;2023-03-13T15:48:46;3.47;;;1.00;;
47856;SDS011;33618;49.972;8.242;2023-03-13T15:51:14;1.88;;;0.95;;
47856;SDS011;33618;49.972;8.242;2023-03-13T15:53:42;1.70;;;0.95;;
47856;SDS011;33618;49.972;8.242;2023-03-13T15:58:43;3.35;;;1.00;;
47856;SDS011;33618;49.972;8.242;2023-03-13T16:01:11;3.22;;;1.02;;
47856;SDS011;33618;49.972;8.242;2023-03-13T16:03:40;2.50;;;0.93;;
47856;SDS011;33618;49.972;8.242;2023-03-13T16:06:17;3.30;;;1.30;;
47856;SDS011;33618;49.972;8.242;2023-03-13T16:08:46;4.15;;;1.23;;
47856;SDS011;33618;49.972;8.242;2023-03-13T16:11:14;4.35;;;1.20;;
47856;SDS011;33618;49.972;8.242;2023-03-13T16:13:42;2.53;;;1.20;;
47856;SDS011;33618;49.972;8.242;2023-03-13T16:16:11;3.22;;;1.13;;
47856;SDS011;33618;49.972;8.242;2023-03-13T16:18:50;3.90;;;1.10;;
47856;SDS011;33618;49.972;8.242;2023-03-13T16:21:25;5.93;;;1.52;;
47856;SDS011;33618;49.972;8.242;2023-03-13T16:23:53;4.82;;;2.92;;
47856;SDS011;33618;49.972;8.242;2023-03-13T16:26:22;4.82;;;1.63;;
47856;SDS011;33618;49.972;8.242;2023-03-13T16:28:50;2.50;;;1.10;;
47856;SDS011;33618;49.972;8.242;2023-03-13T16:31:25;2.92;;;1.40;;
47856;SDS011;33618;49.972;8.242;2023-03-13T16:33:55;1.50;;;1.40;;
47856;SDS011;33618;49.972;8.242;2023-03-13T16:36:25;2.33;;;1.20;;
47856;SDS011;33618;49.972;8.242;2023-03-13T16:38:54;2.95;;;1.30;;
47856;SDS011;33618;49.972;8.242;2023-03-13T16:41:24;3.28;;;1.13;;
47856;SDS011;33618;49.972;8.242;2023-03-13T16:43:54;1.42;;;1.10;;
47856;SDS011;33618;49.972;8.242;2023-03-13T16:46:26;1.73;;;1.08;;
47856;SDS011;33618;49.972;8.242;2023-03-13T16:49:02;1.75;;;1.10;;
47856;SDS011;33618;49.972;8.242;2023-03-13T16:51:29;1.50;;;1.35;;
47856;SDS011;33618;49.972;8.242;2023-03-13T16:53:57;1.40;;;1.30;;
47856;SDS011;33618;49.972;8.242;2023-03-13T16:56:29;1.20;;;1.10;;
47856;SDS011;33618;49.972;8.242;2023-03-13T16:59:02;2.78;;;1.17;;
47856;SDS011;33618;49.972;8.242;2023-03-13T17:01:33;2.78;;;1.30;;
47856;SDS011;33618;49.972;8.242;2023-03-13T17:04:00;3.17;;;1.67;;
47856;SDS011;33618;49.972;8.242;2023-03-13T17:06:28;1.77;;;1.10;;
47856;SDS011;33618;49.972;8.242;2023-03-13T17:09:05;2.35;;;1.10;;
47856;SDS011;33618;49.972;8.242;2023-03-13T17:11:37;1.35;;;1.25;;
47856;SDS011;33618;49.972;8.242;2023-03-13T17:14:05;1.95;;;1.40;;
47856;SDS011;33618;49.972;8.242;2023-03-13T17:16:33;2.35;;;1.52;;
47856;SDS011;33618;49.972;8.242;2023-03-13T17:19:02;2.05;;;1.33;;
47856;SDS011;33618;49.972;8.242;2023-03-13T17:21:32;1.38;;;1.20;;
47856;SDS011;33618;49.972;8.242;2023-03-13T17:24:00;2.25;;;1.98;;
47856;SDS011;33618;49.972;8.242;2023-03-13T17:26:28;2.40;;;1.60;;
47856;SDS011;33618;49.972;8.242;2023-03-13T17:28:58;18.42;;;10.98;;
47856;SDS011;33618;49.972;8.242;2023-03-13T17:31:26;2.78;;;1.90;;
47856;SDS011;33618;49.972;8.242;2023-03-13T17:33:53;3.30;;;1.40;;
47856;SDS011;33618;49.972;8.242;2023-03-13T17:36:21;3.53;;;1.55;;
47856;SDS011;33618;49.972;8.242;2023-03-13T17:38:51;2.65;;;1.60;;
47856;SDS011;33618;49.972;8.242;2023-03-13T17:41:21;6.18;;;1.60;;
47856;SDS011;33618;49.972;8.242;2023-03-13T17:43:51;2.42;;;1.48;;
47856;SDS011;33618;49.972;8.242;2023-03-13T17:48:47;1.67;;;1.50;;
47856;SDS011;33618;49.972;8.242;2023-03-13T17:51:26;2.05;;;1.50;;
47856;SDS011;33618;49.972;8.242;2023-03-13T17:53:54;2.20;;;1.90;;
47856;SDS011;33618;49.972;8.242;2023-03-13T17:58:52;3.80;;;1.90;;
47856;SDS011;33618;49.972;8.242;2023-03-13T18:01:23;1.83;;;1.50;;
47856;SDS011;33618;49.972;8.242;2023-03-13T18:03:54;2.97;;;1.70;;
47856;SDS011;33618;49.972;8.242;2023-03-13T18:06:25;2.85;;;1.70;;
47856;SDS011;33618;49.972;8.242;2023-03-13T18:08:58;10.55;;;2.08;;
47856;SDS011;33618;49.972;8.242;2023-03-13T18:11:34;3.13;;;1.85;;
47856;SDS011;33618;49.972;8.242;2023-03-13T18:14:02;4.72;;;1.90;;
47856;SDS011;33618;49.972;8.242;2023-03-13T18:16:35;3.53;;;1.90;;
47856;SDS011;33618;49.972;8.242;2023-03-13T18:19:12;2.25;;;1.80;;
47856;SDS011;33618;49.972;8.242;2023-03-13T18:21:42;4.05;;;1.92;;
47856;SDS011;33618;49.972;8.242;2023-03-13T18:24:11;2.25;;;1.98;;
47856;SDS011;33618;49.972;8.242;2023-03-13T18:26:39;2.33;;;2.00;;
47856;SDS011;33618;49.972;8.242;2023-03-13T18:29:17;2.05;;;1.80;;
47856;SDS011;33618;49.972;8.242;2023-03-13T18:31:52;3.42;;;2.20;;
47856;SDS011;33618;49.972;8.242;2023-03-13T18:34:21;2.97;;;2.03;;
47856;SDS011;33618;49.972;8.242;2023-03-13T18:36:48;4.13;;;2.20;;
47856;SDS011;33618;49.972;8.242;2023-03-13T18:39:16;3.13;;;2.05;;
47856;SDS011;33618;49.972;8.242;2023-03-13T18:41:49;2.30;;;1.98;;
47856;SDS011;33618;49.972;8.242;2023-03-13T18:44:18;2.65;;;2.38;;